Time;durP1;ratioP1;P1;durP2;ratioP2;P2;SDS_P1;SDS_P2;PMS_P1;PMS_P2;Temp;Humidity;BMP_temperature;BMP_pressure;BME280_temperature;BME280_humidity;BME280_pressure;Samples;Min_cycle;Max_cycle;Signal;HPM_P1;HPM_P2
2023/05/11 00:01:50;;;;;;;6.23;5.70;;;14.80;1.00;;;;;;5062211;28;20192;-53
2023/05/11 00:04:15;;;;;;;13.53;6.90;;;14.80;1.00;;;;;;5066638;28;20196;-53
2023/05/11 00:06:41;;;;;;;6.30;5.80;;;14.70;1.00;;;;;;5061748;28;20208;-55
2023/05/11 00:09:08;;;;;;;6.50;5.90;;;14.60;1.00;;;;;;5059420;28;20191;-54
2023/05/11 00:11:34;;;;;;;7.10;6.40;;;14.60;1.00;;;;;;5065551;28;20325;-52
2023/05/11 00:14:00;;;;;;;9.33;6.00;;;14.60;1.00;;;;;;5063393;28;20462;-54
2023/05/11 00:16:25;;;;;;;5.63;5.20;;;14.50;1.00;;;;;;5066605;28;20558;-55
2023/05/11 00:18:51;;;;;;;6.83;6.23;;;14.50;1.00;;;;;;5063319;28;20241;-54
2023/05/11 00:21:17;;;;;;;7.77;6.10;;;14.40;1.00;;;;;;5062381;28;20192;-54
2023/05/11 00:23:42;;;;;;;7.23;6.00;;;14.40;1.00;;;;;;5065310;28;20188;-55
2023/05/11 00:26:08;;;;;;;7.07;6.37;;;14.30;1.00;;;;;;5063498;28;20691;-54
2023/05/11 00:28:33;;;;;;;6.27;5.77;;;14.30;1.00;;;;;;5066237;28;20302;-54
2023/05/11 00:30:59;;;;;;;7.00;5.57;;;14.30;1.00;;;;;;5062489;28;20201;-55
2023/05/11 00:33:25;;;;;;;8.40;6.47;;;14.20;1.00;;;;;;5068375;28;20241;-52
2023/05/11 00:35:50;;;;;;;7.40;6.30;;;14.20;1.00;;;;;;5068819;28;20184;-54
2023/05/11 00:38:16;;;;;;;6.23;5.63;;;14.20;1.00;;;;;;5066475;28;20198;-53
2023/05/11 00:40:42;;;;;;;7.07;6.37;;;14.20;1.00;;;;;;5065484;28;20271;-54
2023/05/11 00:43:07;;;;;;;7.37;6.67;;;14.10;1.00;;;;;;5062115;28;20279;-55
2023/05/11 00:45:34;;;;;;;6.90;6.30;;;14.10;1.00;;;;;;5067272;28;20868;-52
2023/05/11 00:48:00;;;;;;;7.10;6.40;;;14.10;1.00;;;;;;5064977;28;20212;-53
2023/05/11 00:50:26;;;;;;;10.63;6.27;;;14.10;1.00;;;;;;5065842;28;20468;-53
2023/05/11 00:52:53;;;;;;;6.80;6.20;;;14.00;1.00;;;;;;5063715;28;20207;-53
2023/05/11 00:55:20;;;;;;;7.20;6.50;;;14.00;1.00;;;;;;5068402;28;20796;-54
2023/05/11 00:57:46;;;;;;;7.00;6.30;;;13.90;1.00;;;;;;5065932;28;20499;-54
2023/05/11 01:00:12;;;;;;;7.53;6.13;;;13.90;1.00;;;;;;5062842;28;20567;-53
2023/05/11 01:02:39;;;;;;;7.43;6.50;;;13.90;1.00;;;;;;5077582;28;20215;-53
2023/05/11 01:05:05;;;;;;;7.03;6.00;;;13.90;1.00;;;;;;5073635;28;20466;-54
2023/05/11 01:07:48;;;;;;;6.83;6.23;;;13.80;1.00;;;;;;5067787;28;20471;-53
2023/05/11 01:10:36;;;;;;;9.23;6.20;;;13.80;1.00;;;;;;5067361;28;20445;-51
2023/05/11 01:13:36;;;;;;;7.30;6.60;;;13.80;1.00;;;;;;5067550;28;20761;-53
2023/05/11 01:16:12;;;;;;;6.20;5.60;;;13.80;1.00;;;;;;5058863;28;20445;-56
2023/05/11 01:18:42;;;;;;;11.20;6.93;;;13.80;1.00;;;;;;5067493;28;20445;-53
2023/05/11 01:21:14;;;;;;;8.37;6.60;;;13.80;1.00;;;;;;5067249;28;20430;-53
2023/05/11 01:23:39;;;;;;;8.30;7.20;;;13.50;1.00;;;;;;5065708;28;20452;-53
2023/05/11 01:26:08;;;;;;;7.10;6.30;;;13.70;1.00;;;;;;5066377;28;20449;-54
2023/05/11 01:28:43;;;;;;;8.37;6.93;;;13.70;1.00;;;;;;5063901;28;20222;-52
2023/05/11 01:31:10;;;;;;;7.10;6.27;;;13.70;1.00;;;;;;5065223;28;20467;-54
2023/05/11 01:33:40;;;;;;;7.27;6.60;;;13.70;1.00;;;;;;5066911;28;20927;-55
2023/05/11 01:36:09;;;;;;;6.17;5.67;;;13.70;1.00;;;;;;5063235;28;20434;-54
2023/05/11 01:38:39;;;;;;;7.00;6.30;;;13.70;1.00;;;;;;5064471;28;20442;-53
2023/05/11 01:41:16;;;;;;;11.77;6.73;;;13.70;1.00;;;;;;5064430;28;20447;-55
2023/05/11 01:43:46;;;;;;;7.00;6.40;;;13.70;1.00;;;;;;5068323;28;20453;-57
2023/05/11 01:46:14;;;;;;;7.13;6.40;;;13.60;1.00;;;;;;5063982;28;20464;-57
2023/05/11 01:48:45;;;;;;;9.53;5.87;;;13.60;1.00;;;;;;5068395;28;20534;-54
2023/05/11 01:51:12;;;;;;;7.13;6.43;;;13.60;1.00;;;;;;5067288;28;20442;-52
2023/05/11 01:53:39;;;;;;;7.13;6.10;;;13.50;1.00;;;;;;5068048;28;20449;-54
2023/05/11 01:56:06;;;;;;;6.40;5.80;;;13.50;1.00;;;;;;5067047;28;20469;-54
2023/05/11 01:58:34;;;;;;;6.40;5.73;;;13.50;1.00;;;;;;5070753;28;20487;-55
2023/05/11 02:01:02;;;;;;;8.17;6.10;;;13.50;1.00;;;;;;5068254;28;20446;-53
2023/05/11 02:03:31;;;;;;;7.93;7.13;;;13.60;1.00;;;;;;5069868;28;20452;-54
2023/05/11 02:05:59;;;;;;;6.50;5.90;;;13.60;1.00;;;;;;5066442;28;20438;-52
2023/05/11 02:08:28;;;;;;;7.83;6.27;;;13.50;1.00;;;;;;5066161;28;20525;-53
2023/05/11 02:10:56;;;;;;;6.43;5.93;;;13.50;1.00;;;;;;5068889;28;20445;-53
2023/05/11 02:13:22;;;;;;;11.83;5.90;;;13.50;1.00;;;;;;5066262;28;20443;-56
2023/05/11 02:15:50;;;;;;;6.90;6.20;;;13.50;1.00;;;;;;5069978;28;20449;-52
2023/05/11 02:18:18;;;;;;;7.00;6.40;;;13.50;1.00;;;;;;5067677;28;20774;-53
2023/05/11 02:20:46;;;;;;;6.13;5.60;;;13.50;1.00;;;;;;5070114;28;20610;-56
2023/05/11 02:23:12;;;;;;;6.70;6.00;;;13.40;1.00;;;;;;5070689;28;20450;-51
2023/05/11 02:25:39;;;;;;;7.13;6.50;;;13.40;1.00;;;;;;5066664;28;20521;-56
2023/05/11 02:28:05;;;;;;;6.87;6.17;;;13.40;1.00;;;;;;5065803;28;20505;-52
2023/05/11 02:30:33;;;;;;;7.77;6.50;;;13.40;1.00;;;;;;5072343;28;20442;-54
2023/05/11 02:33:04;;;;;;;7.23;6.63;;;13.30;1.00;;;;;;5076363;28;20444;-51
2023/05/11 02:35:36;;;;;;;6.70;6.10;;;13.20;1.00;;;;;;5075786;28;20445;-53
2023/05/11 02:38:03;;;;;;;7.20;6.50;;;13.20;1.00;;;;;;5064365;28;20445;-53
2023/05/11 02:40:37;;;;;;;6.10;5.60;;;13.20;1.00;;;;;;5068426;28;20441;-56
2023/05/11 02:43:09;;;;;;;7.10;6.13;;;13.20;1.00;;;;;;5069572;28;21092;-54
2023/05/11 02:45:35;;;;;;;8.10;7.17;;;13.20;1.00;;;;;;5066422;28;20454;-53
2023/05/11 02:48:06;;;;;;;7.13;6.43;;;13.10;1.00;;;;;;5068451;28;20501;-54
2023/05/11 02:50:36;;;;;;;7.00;6.30;;;13.10;1.00;;;;;;5070390;28;20785;-55
2023/05/11 02:53:06;;;;;;;6.67;6.07;;;13.10;1.00;;;;;;5068828;28;20822;-54
2023/05/11 02:55:32;;;;;;;6.90;6.30;;;13.10;1.00;;;;;;5069388;28;20438;-54
2023/05/11 02:57:58;;;;;;;6.53;5.93;;;13.00;1.00;;;;;;5066712;28;20472;-56
2023/05/11 03:00:23;;;;;;;7.10;6.07;;;13.00;1.00;;;;;;5068705;28;20237;-55
2023/05/11 03:02:49;;;;;;;7.40;6.13;;;13.00;1.00;;;;;;5068387;28;20242;-53
2023/05/11 03:05:15;;;;;;;7.43;6.73;;;12.90;1.00;;;;;;5089470;28;20274;-56
2023/05/11 03:07:41;;;;;;;7.13;6.43;;;12.90;1.00;;;;;;5075584;28;20548;-54
2023/05/11 03:10:08;;;;;;;7.37;6.67;;;12.80;1.00;;;;;;5062862;28;20649;-54
2023/05/11 03:12:34;;;;;;;7.30;6.70;;;12.80;1.00;;;;;;5062056;28;20435;-54
2023/05/11 03:15:02;;;;;;;7.57;6.90;;;12.80;1.00;;;;;;5074507;28;20447;-53
2023/05/11 03:17:29;;;;;;;6.57;6.07;;;12.80;1.00;;;;;;5071927;28;20456;-54
2023/05/11 03:19:57;;;;;;;6.60;6.07;;;12.80;1.00;;;;;;5069032;28;20446;-54
2023/05/11 03:22:23;;;;;;;6.53;5.93;;;12.80;1.00;;;;;;5068190;28;20442;-54
2023/05/11 03:24:50;;;;;;;8.90;6.10;;;12.80;1.00;;;;;;5062683;28;20442;-54
2023/05/11 03:27:17;;;;;;;8.47;7.07;;;12.80;1.00;;;;;;5080291;28;20859;-54
2023/05/11 03:29:44;;;;;;;6.33;5.73;;;12.80;1.00;;;;;;5069178;28;20927;-53
2023/05/11 03:32:10;;;;;;;6.77;6.27;;;12.80;1.00;;;;;;5066782;28;20851;-54
2023/05/11 03:34:36;;;;;;;7.00;6.43;;;12.80;1.00;;;;;;5070159;28;20955;-54
2023/05/11 03:37:04;;;;;;;7.70;6.60;;;12.90;1.00;;;;;;5066473;28;20450;-57
2023/05/11 03:39:32;;;;;;;6.77;6.10;;;12.90;1.00;;;;;;5067588;28;20210;-54
2023/05/11 03:42:00;;;;;;;7.63;6.93;;;12.90;1.00;;;;;;5066204;28;20824;-53
2023/05/11 03:44:29;;;;;;;5.97;5.37;;;13.10;1.00;;;;;;5066442;28;20477;-52
2023/05/11 03:46:56;;;;;;;6.73;5.97;;;13.10;1.00;;;;;;5065460;28;20465;-57
2023/05/11 03:49:24;;;;;;;6.73;6.13;;;13.30;1.00;;;;;;5065225;28;20476;-52
2023/05/11 03:51:50;;;;;;;7.17;5.60;;;13.40;1.00;;;;;;5064007;28;21085;-52
2023/05/11 03:54:16;;;;;;;6.33;5.70;;;13.40;1.00;;;;;;5066290;28;20446;-53
2023/05/11 03:56:41;;;;;;;7.27;6.63;;;13.50;1.00;;;;;;5066712;28;20474;-55
2023/05/11 03:59:08;;;;;;;5.83;5.33;;;13.50;1.00;;;;;;5066596;28;20184;-53
2023/05/11 04:01:34;;;;;;;6.03;5.53;;;13.60;1.00;;;;;;5064102;28;20196;-53
2023/05/11 04:04:00;;;;;;;5.30;4.90;;;13.60;1.00;;;;;;5067726;28;20843;-54
2023/05/11 04:06:26;;;;;;;6.00;5.50;;;13.70;1.00;;;;;;5067673;28;20477;-53
2023/05/11 04:08:51;;;;;;;5.70;5.20;;;13.80;1.00;;;;;;5069485;28;20558;-54
2023/05/11 04:11:17;;;;;;;5.43;4.93;;;13.80;1.00;;;;;;5077363;28;20215;-54
2023/05/11 04:13:43;;;;;;;5.27;4.87;;;13.90;1.00;;;;;;5072750;28;20615;-56
2023/05/11 04:16:08;;;;;;;5.57;5.07;;;13.90;1.00;;;;;;5063899;28;20202;-53
2023/05/11 04:18:34;;;;;;;6.10;5.50;;;14.10;1.00;;;;;;5063241;28;20268;-55
2023/05/11 04:21:00;;;;;;;6.23;5.50;;;14.10;1.00;;;;;;5062658;28;20661;-55
2023/05/11 04:23:25;;;;;;;6.33;4.90;;;14.20;1.00;;;;;;5067479;28;20255;-54
2023/05/11 04:25:55;;;;;;;5.43;5.00;;;14.20;1.00;;;;;;5065538;28;21115;-54
2023/05/11 04:28:22;;;;;;;6.03;5.10;;;14.30;1.00;;;;;;5065841;28;20266;-53
2023/05/11 04:30:55;;;;;;;5.57;5.07;;;14.40;1.00;;;;;;5066281;28;20450;-55
2023/05/11 04:33:21;;;;;;;7.57;5.00;;;14.50;1.00;;;;;;5064974;28;20536;-54
2023/05/11 04:35:49;;;;;;;7.23;4.90;;;14.50;1.00;;;;;;5060886;28;20555;-53
2023/05/11 04:38:15;;;;;;;5.20;4.70;;;14.50;1.00;;;;;;5063353;28;20304;-56
2023/05/11 04:40:41;;;;;;;7.07;6.37;;;14.50;1.00;;;;;;5065611;28;20537;-54
2023/05/11 04:43:06;;;;;;;5.30;4.80;;;14.70;1.00;;;;;;5065592;28;20667;-53
2023/05/11 04:45:32;;;;;;;5.33;4.83;;;14.70;1.00;;;;;;5065302;28;20278;-51
2023/05/11 04:47:57;;;;;;;5.73;5.23;;;14.90;1.00;;;;;;5063109;28;20242;-55
2023/05/11 04:50:23;;;;;;;5.20;4.70;;;14.90;1.00;;;;;;5066593;28;20258;-52
2023/05/11 04:52:49;;;;;;;6.23;5.13;;;15.00;1.00;;;;;;5063916;28;20653;-53
2023/05/11 04:55:15;;;;;;;7.13;4.33;;;15.00;1.00;;;;;;5068392;28;20303;-54
2023/05/11 04:57:40;;;;;;;5.90;5.30;;;15.00;1.00;;;;;;5063099;28;20631;-53
2023/05/11 05:00:07;;;;;;;5.43;4.90;;;15.10;1.00;;;;;;5063619;28;20184;-54
2023/05/11 05:02:33;;;;;;;5.47;4.97;;;15.30;1.00;;;;;;5066705;28;20191;-54
2023/05/11 05:04:59;;;;;;;6.13;5.37;;;15.50;1.00;;;;;;5066216;28;20852;-55
2023/05/11 05:07:25;;;;;;;5.83;5.00;;;15.70;1.00;;;;;;5068498;28;20508;-54
2023/05/11 05:09:51;;;;;;;7.40;5.00;;;15.70;1.00;;;;;;5061901;28;20450;-52
2023/05/11 05:12:17;;;;;;;5.93;5.43;;;15.80;1.00;;;;;;5066229;28;20820;-55
2023/05/11 05:14:42;;;;;;;7.73;5.43;;;15.90;1.00;;;;;;5067077;28;20689;-55
2023/05/11 05:17:08;;;;;;;6.93;5.10;;;15.90;1.00;;;;;;5071393;28;20214;-53
2023/05/11 05:19:33;;;;;;;5.77;4.77;;;15.90;1.00;;;;;;5071553;28;20506;-56
2023/05/11 05:21:59;;;;;;;5.73;5.20;;;16.00;1.00;;;;;;5063787;28;20266;-53
2023/05/11 05:24:25;;;;;;;5.20;4.70;;;16.00;1.00;;;;;;5069621;28;20306;-54
2023/05/11 05:26:50;;;;;;;9.13;6.90;;;16.10;1.00;;;;;;5070892;28;20623;-55
2023/05/11 05:29:16;;;;;;;6.40;4.80;;;16.10;1.00;;;;;;5068830;28;20192;-52
2023/05/11 05:31:42;;;;;;;5.83;5.40;;;16.20;1.00;;;;;;5068784;28;20195;-55
2023/05/11 05:34:07;;;;;;;6.67;5.13;;;16.40;99.90;;;;;;5074615;28;20196;-54
2023/05/11 05:36:33;;;;;;;6.53;5.30;;;16.50;99.90;;;;;;5071948;28;20192;-57
2023/05/11 05:38:59;;;;;;;6.00;5.30;;;16.70;99.90;;;;;;5066895;28;20224;-52
2023/05/11 05:41:24;;;;;;;5.70;5.20;;;16.70;99.90;;;;;;5069135;28;20214;-53
2023/05/11 05:43:50;;;;;;;7.30;4.87;;;17.00;99.90;;;;;;5068631;28;20310;-55
2023/05/11 05:46:17;;;;;;;7.23;4.53;;;17.10;99.90;;;;;;5074373;28;20625;-56
2023/05/11 05:48:42;;;;;;;7.93;4.87;;;17.30;99.90;;;;;;5072963;28;20211;-54
2023/05/11 05:51:08;;;;;;;5.43;5.03;;;17.50;99.90;;;;;;5067632;28;20465;-55
2023/05/11 05:53:34;;;;;;;6.97;4.53;;;17.70;99.90;;;;;;5068007;28;20513;-53
2023/05/11 05:55:59;;;;;;;5.87;4.60;;;17.80;99.90;;;;;;5064527;28;20224;-54
2023/05/11 05:58:25;;;;;;;7.60;4.93;;;17.90;99.90;;;;;;5073080;28;20227;-52
2023/05/11 06:00:51;;;;;;;18.53;4.87;;;18.00;99.90;;;;;;5066299;28;20202;-54
2023/05/11 06:03:17;;;;;;;4.30;3.90;;;18.00;99.90;;;;;;5071654;28;20405;-55
2023/05/11 06:05:42;;;;;;;5.63;4.47;;;18.30;99.90;;;;;;5063071;28;20560;-53
2023/05/11 06:08:08;;;;;;;6.50;4.67;;;18.40;99.90;;;;;;5070882;28;20211;-53
2023/05/11 06:10:34;;;;;;;4.50;4.10;;;18.50;99.90;;;;;;5066203;28;20188;-55
2023/05/11 06:12:59;;;;;;;5.60;4.07;;;18.60;99.90;;;;;;5069555;28;20231;-55
2023/05/11 06:15:25;;;;;;;4.60;4.20;;;18.70;99.90;;;;;;5069806;28;20249;-54
2023/05/11 06:17:51;;;;;;;4.20;3.90;;;18.70;99.90;;;;;;5077271;28;20629;-55
2023/05/11 06:20:17;;;;;;;5.17;4.17;;;18.80;99.90;;;;;;5068858;28;20547;-52
2023/05/11 06:22:42;;;;;;;4.43;4.03;;;18.90;99.90;;;;;;5070108;28;20203;-55
2023/05/11 06:25:08;;;;;;;4.50;3.60;;;19.00;99.90;;;;;;5066387;28;20199;-55
2023/05/11 06:27:34;;;;;;;4.53;4.13;;;19.10;99.90;;;;;;5069944;28;20218;-56
2023/05/11 06:29:59;;;;;;;5.37;3.60;;;19.20;99.90;;;;;;5066593;28;20195;-52
2023/05/11 06:32:25;;;;;;;4.30;3.87;;;19.10;99.90;;;;;;5066579;28;20180;-54
2023/05/11 06:34:51;;;;;;;4.67;4.27;;;19.20;99.90;;;;;;5072591;28;20217;-54
2023/05/11 06:37:19;;;;;;;7.27;4.37;;;19.20;99.90;;;;;;5070431;28;20203;-55
2023/05/11 06:39:48;;;;;;;7.40;3.97;;;19.00;99.90;;;;;;5067890;28;20279;-55
2023/05/11 06:42:14;;;;;;;4.17;3.60;;;19.00;99.90;;;;;;5066551;28;20608;-54
2023/05/11 06:44:40;;;;;;;4.30;3.63;;;19.10;99.90;;;;;;5065766;28;20491;-53
2023/05/11 06:47:08;;;;;;;6.00;3.63;;;19.10;99.90;;;;;;5072948;28;20261;-55
2023/05/11 06:49:34;;;;;;;4.63;4.13;;;19.30;99.90;;;;;;5069891;28;20524;-55
2023/05/11 06:52:00;;;;;;;8.93;4.10;;;19.50;99.90;;;;;;5067720;28;21002;-54
2023/05/11 06:54:25;;;;;;;7.80;3.73;;;19.40;99.90;;;;;;5067471;28;20192;-53
2023/05/11 06:56:51;;;;;;;3.97;3.67;;;19.50;99.90;;;;;;5071148;28;20227;-55
2023/05/11 06:59:17;;;;;;;4.43;3.63;;;19.60;99.90;;;;;;5069141;28;20226;-54
2023/05/11 07:01:42;;;;;;;3.77;3.40;;;19.50;99.90;;;;;;5074840;28;20212;-54
2023/05/11 07:04:08;;;;;;;4.57;3.60;;;19.50;99.90;;;;;;5070635;28;20531;-53
2023/05/11 07:06:34;;;;;;;4.23;3.83;;;19.70;99.90;;;;;;5064241;28;20192;-54
2023/05/11 07:09:02;;;;;;;6.67;4.37;;;19.70;99.90;;;;;;5072692;28;20734;-56
2023/05/11 07:11:29;;;;;;;4.30;3.90;;;19.60;99.90;;;;;;5073283;28;20537;-55
2023/05/11 07:13:54;;;;;;;3.80;3.47;;;19.60;99.90;;;;;;5071946;28;20503;-55
2023/05/11 07:16:20;;;;;;;6.03;3.27;;;19.70;99.90;;;;;;5064180;28;20445;-54
2023/05/11 07:18:46;;;;;;;3.57;3.27;;;19.90;99.90;;;;;;5065171;28;20271;-52
2023/05/11 07:21:11;;;;;;;5.97;4.20;;;19.90;99.90;;;;;;5069204;28;20223;-55
2023/05/11 07:23:37;;;;;;;3.93;3.53;;;19.90;99.90;;;;;;5066987;28;20196;-55
2023/05/11 07:26:07;;;;;;;4.50;3.70;;;20.00;99.90;;;;;;5068101;28;20236;-53
2023/05/11 07:28:36;;;;;;;4.20;3.80;;;20.00;99.90;;;;;;5070766;28;20207;-54
2023/05/11 07:31:02;;;;;;;5.80;4.23;;;20.10;99.90;;;;;;5070740;28;20924;-54
2023/05/11 07:33:28;;;;;;;4.57;3.33;;;20.10;99.90;;;;;;5070194;28;20478;-54
2023/05/11 07:35:54;;;;;;;5.30;4.10;;;20.10;99.90;;;;;;5070372;28;20915;-55
2023/05/11 07:38:19;;;;;;;3.50;3.20;;;20.30;99.90;;;;;;5070049;28;20576;-54
2023/05/11 07:40:45;;;;;;;6.23;3.70;;;20.50;99.90;;;;;;5070346;28;20416;-54
2023/05/11 07:43:10;;;;;;;4.67;4.20;;;20.60;99.90;;;;;;5090809;28;20179;-53
2023/05/11 07:45:36;;;;;;;7.10;3.80;;;20.60;99.90;;;;;;5075050;28;20703;-55
2023/05/11 07:48:02;;;;;;;6.07;3.80;;;20.70;99.90;;;;;;5070005;28;20301;-54
2023/05/11 07:50:27;;;;;;;5.23;3.40;;;20.80;99.90;;;;;;5070086;28;20192;-54
2023/05/11 07:52:53;;;;;;;4.60;4.20;;;21.00;99.90;;;;;;5069787;28;20219;-54
2023/05/11 07:55:23;;;;;;;7.37;3.50;;;21.00;99.90;;;;;;5075946;28;20176;-54
2023/05/11 07:57:53;;;;;;;3.53;3.20;;;21.00;99.90;;;;;;5070278;28;20585;-53
2023/05/11 08:00:19;;;;;;;4.40;4.00;;;20.90;99.90;;;;;;5072686;28;20433;-54
2023/05/11 08:02:44;;;;;;;3.40;3.10;;;20.90;99.90;;;;;;5075316;28;20991;-55
2023/05/11 08:05:10;;;;;;;4.10;3.57;;;20.90;99.90;;;;;;5083465;28;20520;-54
2023/05/11 08:07:36;;;;;;;5.13;4.37;;;20.90;99.90;;;;;;5090065;28;20264;-55
2023/05/11 08:10:01;;;;;;;3.70;3.40;;;21.00;99.90;;;;;;5090095;28;20179;-54
2023/05/11 08:12:27;;;;;;;4.10;3.70;;;21.00;99.90;;;;;;5090053;28;20181;-52
2023/05/11 08:14:53;;;;;;;4.57;3.30;;;21.30;99.90;;;;;;5079985;28;20179;-53
2023/05/11 08:17:18;;;;;;;3.50;3.20;;;21.10;99.90;;;;;;5069893;28;20190;-56
2023/05/11 08:19:44;;;;;;;4.00;3.60;;;21.20;99.90;;;;;;5069742;28;20210;-54
2023/05/11 08:22:09;;;;;;;4.17;3.87;;;21.60;99.90;;;;;;5069904;28;20221;-56
2023/05/11 08:24:35;;;;;;;4.37;3.40;;;21.90;99.90;;;;;;5078490;28;20190;-56
2023/05/11 08:27:01;;;;;;;6.53;3.80;;;21.90;99.90;;;;;;5069527;28;20214;-54
2023/05/11 08:29:27;;;;;;;4.50;3.70;;;21.90;99.90;;;;;;5069580;28;20190;-53
2023/05/11 08:31:53;;;;;;;3.93;3.60;;;21.80;99.90;;;;;;5069351;28;20431;-54
2023/05/11 08:34:18;;;;;;;3.80;3.37;;;21.90;99.90;;;;;;5081963;28;20529;-54
2023/05/11 08:36:44;;;;;;;4.43;3.73;;;21.80;99.90;;;;;;5089662;28;20513;-54
2023/05/11 08:39:10;;;;;;;3.70;3.40;;;21.80;99.90;;;;;;5071306;28;20588;-52
2023/05/11 08:41:35;;;;;;;5.13;3.60;;;22.00;99.90;;;;;;5069322;28;20183;-53
2023/05/11 08:44:02;;;;;;;3.83;3.43;;;22.10;99.90;;;;;;5071523;28;20442;-54
2023/05/11 08:46:29;;;;;;;5.03;3.30;;;22.30;99.90;;;;;;5083753;28;20183;-53
2023/05/11 08:48:56;;;;;;;7.73;4.10;;;22.50;99.90;;;;;;5089006;28;20862;-55
2023/05/11 08:51:23;;;;;;;3.33;3.03;;;22.70;99.90;;;;;;5084606;28;21020;-55
2023/05/11 08:53:49;;;;;;;4.53;3.13;;;22.70;99.90;;;;;;5069089;28;20439;-56
2023/05/11 08:56:15;;;;;;;5.80;3.63;;;22.80;99.90;;;;;;5068934;28;20524;-53
2023/05/11 08:58:41;;;;;;;5.77;3.87;;;23.00;99.90;;;;;;5069612;28;20738;-54
2023/05/11 09:01:10;;;;;;;3.83;3.47;;;23.00;99.90;;;;;;5069228;28;20985;-52
2023/05/11 09:03:38;;;;;;;4.10;3.70;;;22.80;99.90;;;;;;5080635;28;20518;-54
2023/05/11 09:06:06;;;;;;;5.03;4.37;;;22.70;99.90;;;;;;5088969;28;20470;-53
2023/05/11 09:08:35;;;;;;;5.10;3.53;;;22.70;99.90;;;;;;5088784;28;20458;-53
2023/05/11 09:11:01;;;;;;;3.97;3.20;;;22.60;99.90;;;;;;5089405;28;20482;-54
2023/05/11 09:13:28;;;;;;;12.03;3.40;;;22.60;99.90;;;;;;5075477;28;20471;-53
2023/05/11 09:15:54;;;;;;;4.17;3.77;;;22.60;99.90;;;;;;5069077;28;20485;-52
2023/05/11 09:18:20;;;;;;;4.83;3.10;;;22.80;99.90;;;;;;5069107;28;20506;-55
2023/05/11 09:20:48;;;;;;;5.07;4.00;;;22.90;99.90;;;;;;5068600;28;20185;-56
2023/05/11 09:23:22;;;;;;;6.50;3.57;;;23.00;99.90;;;;;;5068863;28;20192;-54
2023/05/11 09:25:48;;;;;;;5.07;3.73;;;23.20;99.90;;;;;;5069274;28;20923;-52
2023/05/11 09:28:15;;;;;;;6.70;3.20;;;23.00;99.90;;;;;;5068860;28;20510;-53
2023/05/11 09:30:42;;;;;;;3.10;2.80;;;23.10;99.90;;;;;;5069020;28;20263;-52
2023/05/11 09:33:08;;;;;;;6.73;3.20;;;23.00;99.90;;;;;;5084085;28;20430;-55
2023/05/11 09:35:34;;;;;;;6.47;3.07;;;23.20;99.90;;;;;;5088845;28;20440;-55
2023/05/11 09:38:00;;;;;;;4.10;3.70;;;23.30;99.90;;;;;;5088896;28;20625;-54
2023/05/11 09:40:26;;;;;;;6.97;3.40;;;23.40;99.90;;;;;;5088769;28;20425;-55
2023/05/11 09:42:53;;;;;;;4.40;2.90;;;23.60;99.90;;;;;;5089095;28;20189;-54
2023/05/11 09:45:41;;;;;;;3.83;3.00;;;23.70;99.90;;;;;;5088885;28;20764;-53
2023/05/11 09:48:29;;;;;;;4.30;2.80;;;23.90;99.90;;;;;;5083770;28;20458;-55
2023/05/11 09:51:03;;;;;;;4.43;2.80;;;24.10;99.90;;;;;;5068583;28;20743;-55
2023/05/11 09:53:41;;;;;;;5.27;3.20;;;24.00;99.90;;;;;;5077011;28;20438;-54
2023/05/11 09:56:08;;;;;;;3.23;2.83;;;24.00;99.90;;;;;;5075523;28;20525;-54
2023/05/11 09:58:46;;;;;;;3.93;3.10;;;24.00;99.90;;;;;;5068659;28;20437;-53
2023/05/11 10:01:13;;;;;;;4.00;3.00;;;23.70;99.90;;;;;;5068872;28;20431;-54
2023/05/11 10:03:54;;;;;;;6.30;3.17;;;23.70;99.90;;;;;;5071196;28;20466;-56
2023/05/11 10:06:20;;;;;;;3.30;3.00;;;24.00;99.90;;;;;;5071954;28;20526;-54
2023/05/11 10:08:47;;;;;;;4.70;2.93;;;24.00;99.90;;;;;;5072048;28;20579;-55
2023/05/11 10:11:13;;;;;;;3.90;3.40;;;24.10;99.90;;;;;;5080160;28;20450;-56
2023/05/11 10:13:39;;;;;;;3.27;2.97;;;24.40;99.90;;;;;;5092303;28;20440;-54
2023/05/11 10:16:07;;;;;;;2.80;2.50;;;24.50;99.90;;;;;;5089561;28;20464;-52
2023/05/11 10:18:32;;;;;;;4.30;2.60;;;24.40;99.90;;;;;;5092260;28;20431;-53
2023/05/11 10:20:58;;;;;;;6.00;2.40;;;24.20;99.90;;;;;;5091989;28;20435;-53
2023/05/11 10:23:25;;;;;;;2.60;2.40;;;24.10;99.90;;;;;;5091827;28;20231;-52
2023/05/11 10:25:54;;;;;;;5.00;2.27;;;24.20;99.90;;;;;;5092136;28;20406;-53
2023/05/11 10:28:21;;;;;;;5.97;2.83;;;24.20;99.90;;;;;;5092073;28;20461;-53
2023/05/11 10:30:46;;;;;;;3.93;2.40;;;24.20;99.90;;;;;;5091974;28;20987;-55
2023/05/11 10:33:12;;;;;;;5.87;2.53;;;24.30;99.90;;;;;;5092017;28;20448;-54
2023/05/11 10:35:38;;;;;;;4.50;3.07;;;24.30;99.90;;;;;;5091658;28;20234;-54
2023/05/11 10:38:05;;;;;;;3.63;2.67;;;24.40;99.90;;;;;;5091664;28;20505;-54
2023/05/11 10:40:39;;;;;;;2.60;2.30;;;24.50;99.90;;;;;;5087747;28;20661;-54
2023/05/11 10:43:05;;;;;;;3.83;2.30;;;24.70;99.90;;;;;;5071440;28;20824;-55
2023/05/11 10:46:01;;;;;;;3.10;2.50;;;24.50;99.90;;;;;;5074460;28;20453;-54
2023/05/11 10:48:41;;;;;;;2.50;2.30;;;24.40;99.90;;;;;;5091622;28;20215;-54
2023/05/11 10:51:32;;;;;;;2.80;2.37;;;24.20;99.90;;;;;;5091498;28;20442;-54
2023/05/11 10:54:25;;;;;;;3.20;2.90;;;24.30;99.90;;;;;;5078702;28;20437;-54
2023/05/11 10:57:16;;;;;;;6.07;2.30;;;24.50;99.90;;;;;;5070930;28;20499;-54
2023/05/11 10:59:54;;;;;;;3.23;2.93;;;24.50;99.90;;;;;;5079734;28;20510;-55
2023/05/11 11:02:20;;;;;;;5.00;2.43;;;24.50;99.90;;;;;;5077361;28;20449;-55
2023/05/11 11:04:50;;;;;;;3.30;2.60;;;24.70;99.90;;;;;;5087339;28;20438;-52
2023/05/11 11:07:18;;;;;;;6.60;2.80;;;24.70;99.90;;;;;;5091311;28;20450;-53
2023/05/11 11:09:58;;;;;;;4.57;2.60;;;25.10;99.90;;;;;;5091243;28;20437;-53
2023/05/11 11:12:26;;;;;;;3.97;2.37;;;25.00;99.90;;;;;;5091107;28;20832;-53
2023/05/11 11:15:00;;;;;;;3.70;2.83;;;24.70;99.90;;;;;;5090852;28;20945;-53
2023/05/11 11:17:31;;;;;;;5.43;2.63;;;24.50;99.90;;;;;;5091031;28;20997;-54
2023/05/11 11:20:00;;;;;;;6.10;3.10;;;24.30;99.90;;;;;;5090926;28;20406;-56
2023/05/11 11:22:34;;;;;;;2.97;2.67;;;24.30;99.90;;;;;;5091009;28;20442;-55
2023/05/11 11:25:04;;;;;;;4.23;2.47;;;24.60;99.90;;;;;;5090924;28;20448;-54
2023/05/11 11:27:47;;;;;;;3.13;2.80;;;24.80;99.90;;;;;;5075519;28;20493;-54
2023/05/11 11:30:27;;;;;;;2.87;2.40;;;24.90;99.90;;;;;;5070713;28;20411;-55
2023/05/11 11:33:08;;;;;;;3.13;2.80;;;24.90;99.90;;;;;;5070691;28;20432;-54
2023/05/11 11:35:43;;;;;;;2.63;2.43;;;25.00;99.90;;;;;;5072617;28;20410;-53
2023/05/11 11:38:11;;;;;;;2.77;2.57;;;25.00;99.90;;;;;;5071557;28;20452;-55
2023/05/11 11:40:38;;;;;;;3.00;2.70;;;24.90;99.90;;;;;;5086096;28;21004;-54
2023/05/11 11:43:22;;;;;;;3.90;3.10;;;25.10;99.90;;;;;;5070477;28;20420;-53
2023/05/11 11:45:54;;;;;;;3.30;2.90;;;25.30;99.90;;;;;;5083647;28;20458;-54
2023/05/11 11:48:34;;;;;;;2.83;2.63;;;25.40;99.90;;;;;;5083083;28;20439;-54
2023/05/11 11:51:10;;;;;;;3.77;2.30;;;25.60;99.90;;;;;;5071543;28;21803;-53
2023/05/11 11:53:36;;;;;;;4.40;2.83;;;25.70;99.90;;;;;;5085002;28;20443;-54
2023/05/11 11:56:06;;;;;;;6.50;3.10;;;25.60;99.90;;;;;;5070146;28;20464;-55
2023/05/11 11:58:41;;;;;;;3.87;2.50;;;25.40;99.90;;;;;;5070134;28;20240;-53
2023/05/11 12:01:08;;;;;;;2.80;2.60;;;25.30;99.90;;;;;;5081221;28;20411;-52
2023/05/11 12:03:35;;;;;;;3.60;2.77;;;25.00;99.90;;;;;;5070112;28;20448;-54
2023/05/11 12:06:03;;;;;;;2.67;2.47;;;24.70;99.90;;;;;;5088115;28;20438;-52
2023/05/11 12:08:32;;;;;;;3.80;3.23;;;24.50;99.90;;;;;;5089976;28;20479;-55
2023/05/11 12:10:58;;;;;;;4.17;3.00;;;24.40;99.90;;;;;;5090165;28;20747;-53
2023/05/11 12:13:24;;;;;;;3.80;2.80;;;24.50;99.90;;;;;;5089658;28;20405;-55
2023/05/11 12:16:07;;;;;;;2.80;2.30;;;24.80;99.90;;;;;;5090034;28;20439;-53
2023/05/11 12:18:32;;;;;;;4.83;2.97;;;24.70;99.90;;;;;;5089924;28;20439;-55
2023/05/11 12:20:58;;;;;;;3.83;2.87;;;24.90;99.90;;;;;;5085462;28;20941;-53
2023/05/11 12:23:23;;;;;;;6.63;3.30;;;24.90;99.90;;;;;;5069549;28;20199;-53
2023/05/11 12:26:05;;;;;;;4.20;3.60;;;24.90;99.90;;;;;;5069106;28;20194;-56
2023/05/11 12:28:34;;;;;;;2.80;2.60;;;24.90;99.90;;;;;;5085653;28;20214;-54
2023/05/11 12:31:00;;;;;;;3.40;2.57;;;24.80;99.90;;;;;;5089695;28;20508;-54
2023/05/11 12:33:26;;;;;;;3.17;2.87;;;24.50;99.90;;;;;;5084071;28;20437;-52
2023/05/11 12:35:56;;;;;;;3.73;3.10;;;24.30;99.90;;;;;;5071396;28;20188;-53
2023/05/11 12:38:21;;;;;;;6.10;2.70;;;24.10;99.90;;;;;;5089783;28;20197;-53
2023/05/11 12:40:52;;;;;;;2.90;2.70;;;24.30;99.90;;;;;;5069003;28;20488;-54
2023/05/11 12:43:21;;;;;;;7.60;3.50;;;24.10;99.90;;;;;;5065117;28;20210;-53
2023/05/11 12:45:47;;;;;;;4.70;2.73;;;24.10;99.90;;;;;;5069285;28;20435;-54
2023/05/11 12:48:13;;;;;;;2.90;2.53;;;24.00;99.90;;;;;;5067265;28;20445;-54
2023/05/11 12:50:40;;;;;;;4.10;3.33;;;23.90;99.90;;;;;;5069171;28;20484;-56
2023/05/11 12:53:13;;;;;;;5.50;2.40;;;24.00;99.90;;;;;;5065810;28;20460;-52
2023/05/11 12:55:39;;;;;;;15.00;3.27;;;24.00;99.90;;;;;;5087972;28;20444;-55